createdAt,value
2018-11-12T00:00:06.200Z,57.25
2018-11-12T00:00:37.793Z,57.30
2018-11-12T00:01:09.384Z,57.53
2018-11-12T00:01:40.977Z,57.89
2018-11-12T00:02:12.578Z,58.06
2018-11-12T00:02:44.177Z,51.10
2018-11-12T00:03:15.837Z,49.09
2018-11-12T00:03:47.423Z,48.54
2018-11-12T00:04:19.043Z,48.47
2018-11-12T00:04:50.634Z,48.60
2018-11-12T00:05:22.219Z,49.73
2018-11-12T00:05:53.808Z,50.02
2018-11-12T00:06:25.382Z,52.94
2018-11-12T00:06:56.955Z,54.39
2018-11-12T00:07:28.557Z,55.24
2018-11-12T00:08:00.143Z,54.35
2018-11-12T00:08:31.737Z,54.36
2018-11-12T00:09:03.321Z,54.12
2018-11-12T00:09:34.931Z,54.30
2018-11-12T00:10:06.524Z,54.15
2018-11-12T00:10:38.126Z,54.32
2018-11-12T00:11:09.726Z,54.30
2018-11-12T00:11:41.330Z,54.38
2018-11-12T00:12:12.925Z,54.53
2018-11-12T00:12:44.512Z,54.58
2018-11-12T00:13:16.129Z,54.66
2018-11-12T00:13:47.717Z,54.72
2018-11-12T00:14:19.345Z,54.85
2018-11-12T00:14:50.944Z,54.93
2018-11-12T00:15:22.531Z,54.92
2018-11-12T00:15:54.133Z,54.95
2018-11-12T00:16:25.707Z,55.10
2018-11-12T00:16:57.291Z,55.25
2018-11-12T00:17:28.866Z,55.33
2018-11-12T00:18:00.452Z,55.42
2018-11-12T00:18:32.036Z,55.60
2018-11-12T00:19:03.629Z,55.74
2018-11-12T00:19:35.230Z,55.89
2018-11-12T00:20:06.829Z,55.91
2018-11-12T00:20:38.416Z,56.05
2018-11-12T00:21:10.000Z,56.12
2018-11-12T00:21:41.618Z,56.10
2018-11-12T00:22:13.200Z,56.16
2018-11-12T00:22:44.774Z,56.26
2018-11-12T00:23:16.361Z,56.22
2018-11-12T00:23:47.933Z,56.30
2018-11-12T00:24:19.519Z,56.38
2018-11-12T00:24:51.126Z,56.50
2018-11-12T00:25:22.712Z,56.58
2018-11-12T00:25:54.299Z,56.73
2018-11-12T00:26:25.898Z,56.86
2018-11-12T00:26:57.488Z,56.96
2018-11-12T00:27:29.076Z,57.07
2018-11-12T00:28:00.673Z,57.03
2018-11-12T00:28:32.276Z,57.13
2018-11-12T00:29:03.885Z,57.22
2018-11-12T00:29:35.505Z,57.30
2018-11-12T00:30:07.118Z,57.36
2018-11-12T00:30:38.708Z,57.33
2018-11-12T00:31:10.292Z,57.38
2018-11-12T00:31:41.880Z,57.47
2018-11-12T00:32:13.466Z,57.48
2018-11-12T00:32:45.072Z,57.59
2018-11-12T00:33:16.678Z,57.54
2018-11-12T00:33:48.319Z,57.58
2018-11-12T00:34:19.905Z,57.63
2018-11-12T00:34:51.538Z,57.71
2018-11-12T00:35:23.123Z,57.78
2018-11-12T00:35:54.723Z,57.79
2018-11-12T00:36:26.321Z,57.86
2018-11-12T00:36:57.926Z,57.90
2018-11-12T00:37:29.513Z,58.05
2018-11-12T00:38:01.118Z,58.04
2018-11-12T00:38:32.703Z,58.07
2018-11-12T00:39:04.291Z,58.09
2018-11-12T00:39:35.895Z,58.20
2018-11-12T00:40:07.480Z,58.20
2018-11-12T00:40:39.068Z,58.30
2018-11-12T00:41:10.655Z,58.23
2018-11-12T00:41:42.246Z,58.28
2018-11-12T00:42:13.845Z,58.20
2018-11-12T00:42:45.445Z,58.34
2018-11-12T00:43:17.045Z,58.37
2018-11-12T00:43:48.646Z,58.42
2018-11-12T00:44:20.246Z,58.58
2018-11-12T00:44:51.857Z,58.61
2018-11-12T00:45:23.443Z,58.63
2018-11-12T00:45:55.046Z,58.65
2018-11-12T00:46:26.649Z,58.76
2018-11-12T00:46:58.239Z,58.71
2018-11-12T00:47:29.823Z,58.71
2018-11-12T00:48:01.408Z,58.79
2018-11-12T00:48:32.981Z,58.86
2018-11-12T00:49:04.568Z,58.90
2018-11-12T00:49:36.174Z,58.87
2018-11-12T00:50:07.760Z,58.90
2018-11-12T00:50:39.352Z,58.90
2018-11-12T00:51:10.936Z,58.99
2018-11-12T00:51:42.532Z,59.14
2018-11-12T00:52:14.117Z,59.23
2018-11-12T00:52:45.713Z,59.23
2018-11-12T00:53:17.315Z,59.15
2018-11-12T00:53:48.890Z,59.14
2018-11-12T00:54:20.484Z,59.52
2018-11-12T00:54:52.114Z,59.51
2018-11-12T00:55:23.700Z,59.53
2018-11-12T00:55:55.289Z,59.47
2018-11-12T00:56:26.878Z,59.44
2018-11-12T00:56:58.463Z,59.36
2018-11-12T00:57:30.051Z,59.47
2018-11-12T00:58:01.626Z,59.24
2018-11-12T00:58:33.226Z,59.47
2018-11-12T00:59:04.816Z,59.41
2018-11-12T00:59:36.438Z,59.42
2018-11-12T01:00:08.052Z,59.33
2018-11-12T01:00:39.635Z,59.38
2018-11-12T01:01:11.221Z,59.45
2018-11-12T01:01:42.817Z,59.25
2018-11-12T01:02:14.418Z,59.33
2018-11-12T01:02:46.016Z,59.49
2018-11-12T01:03:17.607Z,59.34
2018-11-12T01:03:49.196Z,59.50
2018-11-12T01:04:20.798Z,59.55
2018-11-12T01:04:52.413Z,59.45
2018-11-12T01:05:24.000Z,59.78
2018-11-12T01:05:55.591Z,59.70
2018-11-12T01:06:27.175Z,59.65
2018-11-12T01:06:58.786Z,59.80
2018-11-12T01:07:30.389Z,59.90
2018-11-12T01:08:01.995Z,59.82
2018-11-12T01:08:33.595Z,60.02
2018-11-12T01:09:05.171Z,59.96
2018-11-12T01:09:36.774Z,60.11
2018-11-12T01:10:08.378Z,60.18
2018-11-12T01:10:39.978Z,60.19
2018-11-12T01:11:11.574Z,60.13
2018-11-12T01:11:43.177Z,60.23
2018-11-12T01:12:14.776Z,60.30
2018-11-12T01:12:46.349Z,60.31
2018-11-12T01:13:17.945Z,60.40
2018-11-12T01:13:49.547Z,60.32
2018-11-12T01:14:21.119Z,60.43
2018-11-12T01:14:52.732Z,60.36
2018-11-12T01:15:24.319Z,60.36
2018-11-12T01:15:55.914Z,60.39
2018-11-12T01:16:27.521Z,60.40
2018-11-12T01:16:59.122Z,60.52
2018-11-12T01:17:30.718Z,60.52
2018-11-12T01:18:02.303Z,60.54
2018-11-12T01:18:34.453Z,60.44
2018-11-12T01:19:06.054Z,60.59
2018-11-12T01:19:37.629Z,60.40
2018-11-12T01:20:09.257Z,60.58
2018-11-12T01:20:40.843Z,60.58
2018-11-12T01:21:12.446Z,60.50
2018-11-12T01:21:44.039Z,60.55
2018-11-12T01:22:16.214Z,60.59
2018-11-12T01:22:48.388Z,60.65
2018-11-12T01:23:19.962Z,60.82
2018-11-12T01:23:51.566Z,60.88
2018-11-12T01:24:23.160Z,60.80
2018-11-12T01:24:54.772Z,60.85
2018-11-12T01:25:26.362Z,60.78
2018-11-12T01:25:57.965Z,60.89
2018-11-12T01:26:29.551Z,61.01
2018-11-12T01:27:01.150Z,60.91
2018-11-12T01:27:32.753Z,61.08
2018-11-12T01:28:04.330Z,60.94
2018-11-12T01:28:35.933Z,60.98
2018-11-12T01:29:07.543Z,60.84
2018-11-12T01:29:39.119Z,61.05
2018-11-12T01:30:10.724Z,61.00
2018-11-12T01:30:42.308Z,61.20
2018-11-12T01:31:13.910Z,61.20
2018-11-12T01:31:45.506Z,61.24
2018-11-12T01:32:17.094Z,61.20
2018-11-12T01:32:48.693Z,61.33
2018-11-12T01:33:20.294Z,61.39
2018-11-12T01:33:51.890Z,61.29
2018-11-12T01:34:23.487Z,61.40
2018-11-12T01:34:55.087Z,61.38
2018-11-12T01:35:26.691Z,61.33
2018-11-12T01:35:58.284Z,61.16
2018-11-12T01:36:29.871Z,61.23
2018-11-12T01:37:01.461Z,61.37
2018-11-12T01:37:33.060Z,61.39
2018-11-12T01:38:04.649Z,61.17
2018-11-12T01:38:36.237Z,61.31
2018-11-12T01:39:07.825Z,61.29
2018-11-12T01:39:39.433Z,61.15
2018-11-12T01:40:11.098Z,61.20
2018-11-12T01:40:42.684Z,61.29
2018-11-12T01:41:14.253Z,61.31
2018-11-12T01:41:45.845Z,61.16
2018-11-12T01:42:17.432Z,61.23
2018-11-12T01:42:49.034Z,61.24
2018-11-12T01:43:20.624Z,61.17
2018-11-12T01:43:52.208Z,61.24
2018-11-12T01:44:23.792Z,61.26
2018-11-12T01:44:55.404Z,61.35
2018-11-12T01:45:26.983Z,61.32
2018-11-12T01:45:58.587Z,61.31
2018-11-12T01:46:30.172Z,61.14
2018-11-12T01:47:01.756Z,61.23
2018-11-12T01:47:33.340Z,61.11
2018-11-12T01:48:04.923Z,61.13
2018-11-12T01:48:36.515Z,61.17
2018-11-12T01:49:08.108Z,61.13
2018-11-12T01:49:39.708Z,61.26
2018-11-12T01:50:11.331Z,61.16
2018-11-12T01:50:42.934Z,61.10
2018-11-12T01:51:14.525Z,61.13
2018-11-12T01:51:46.120Z,61.17
2018-11-12T01:52:17.718Z,61.24
2018-11-12T01:52:49.318Z,61.36
2018-11-12T01:53:20.922Z,61.13
2018-11-12T01:53:52.521Z,61.22
2018-11-12T01:54:24.102Z,61.24
2018-11-12T01:54:55.695Z,61.26
2018-11-12T01:55:27.280Z,61.18
2018-11-12T01:55:58.854Z,61.25
2018-11-12T01:56:30.441Z,61.27
2018-11-12T01:57:02.032Z,61.19
2018-11-12T01:57:33.620Z,61.28
2018-11-12T01:58:05.208Z,61.29
2018-11-12T01:58:36.794Z,61.25
2018-11-12T01:59:08.407Z,61.24
2018-11-12T01:59:39.999Z,61.19
2018-11-12T02:00:11.622Z,61.39
2018-11-12T02:00:43.221Z,61.16
2018-11-12T02:01:14.809Z,61.23
2018-11-12T02:01:46.464Z,61.33
2018-11-12T02:02:18.007Z,61.22
2018-11-12T02:02:49.595Z,61.35
2018-11-12T02:03:21.190Z,61.24
2018-11-12T02:03:52.787Z,61.34
2018-11-12T02:04:24.375Z,61.24
2018-11-12T02:04:56.025Z,61.44
2018-11-12T02:05:27.573Z,61.44
2018-11-12T02:05:59.174Z,61.48
2018-11-12T02:06:30.759Z,61.50
2018-11-12T02:07:02.344Z,61.35
2018-11-12T02:07:33.932Z,61.52
2018-11-12T02:08:05.520Z,61.48
2018-11-12T02:08:37.139Z,61.75
2018-11-12T02:09:08.816Z,61.82
2018-11-12T02:09:40.378Z,61.56
2018-11-12T02:10:12.496Z,61.62
2018-11-12T02:10:44.619Z,61.62
2018-11-12T02:11:16.229Z,61.60
2018-11-12T02:11:47.824Z,61.63
2018-11-12T02:12:19.408Z,61.59
2018-11-12T02:12:50.992Z,61.61
2018-11-12T02:13:22.589Z,61.74
2018-11-12T02:13:54.178Z,61.85
2018-11-12T02:14:25.792Z,61.91
2018-11-12T02:14:57.400Z,61.74
2018-11-12T02:15:29.002Z,61.65
2018-11-12T02:16:00.592Z,61.56
2018-11-12T02:16:32.175Z,61.73
2018-11-12T02:17:03.760Z,62.02
2018-11-12T02:17:35.369Z,61.99
2018-11-12T02:18:06.966Z,62.13
2018-11-12T02:18:38.584Z,62.17
2018-11-12T02:19:10.175Z,62.23
2018-11-12T02:19:41.760Z,62.34
2018-11-12T02:20:13.394Z,62.39
2018-11-12T02:20:45.003Z,62.52
2018-11-12T02:21:16.589Z,62.42
2018-11-12T02:21:48.180Z,62.56
2018-11-12T02:22:19.772Z,62.58
2018-11-12T02:22:51.455Z,62.63
2018-11-12T02:23:23.011Z,62.58
2018-11-12T02:23:54.605Z,62.73
2018-11-12T02:24:26.201Z,62.59
2018-11-12T02:24:57.810Z,62.86
2018-11-12T02:25:29.437Z,62.89
2018-11-12T02:26:01.041Z,62.74
2018-11-12T02:26:32.628Z,62.92
2018-11-12T02:27:04.232Z,62.90
2018-11-12T02:27:35.823Z,63.05
2018-11-12T02:28:07.412Z,63.05
2018-11-12T02:28:39.005Z,63.05
2018-11-12T02:29:10.627Z,63.02
2018-11-12T02:29:42.238Z,63.21
2018-11-12T02:30:13.859Z,63.08
2018-11-12T02:30:45.481Z,63.30
2018-11-12T02:31:17.071Z,63.31
2018-11-12T02:31:48.677Z,63.40
2018-11-12T02:32:20.286Z,63.39
2018-11-12T02:32:51.891Z,63.49
2018-11-12T02:33:23.503Z,63.54
2018-11-12T02:33:55.096Z,63.72
2018-11-12T02:34:26.698Z,63.79
2018-11-12T02:34:58.284Z,63.80
2018-11-12T02:35:29.904Z,63.82
2018-11-12T02:36:01.506Z,63.70
2018-11-12T02:36:33.112Z,63.65
2018-11-12T02:37:04.700Z,63.86
2018-11-12T02:37:36.287Z,63.92
2018-11-12T02:38:07.888Z,63.96
2018-11-12T02:38:39.479Z,63.94
2018-11-12T02:39:11.087Z,64.06
2018-11-12T02:39:43.052Z,64.26
2018-11-12T02:40:14.677Z,64.20
2018-11-12T02:40:46.292Z,64.51
2018-11-12T02:41:17.879Z,64.44
2018-11-12T02:41:49.467Z,64.52
2018-11-12T02:42:21.050Z,64.45
2018-11-12T02:42:52.650Z,64.81
2018-11-12T02:43:24.254Z,64.52
2018-11-12T02:43:55.919Z,64.51
2018-11-12T02:44:27.508Z,64.88
2018-11-12T02:44:59.096Z,64.86
2018-11-12T02:45:30.698Z,64.50
2018-11-12T02:46:02.284Z,60.70
2018-11-12T02:46:33.878Z,64.57
2018-11-12T02:47:05.458Z,63.86
2018-11-12T02:47:37.030Z,64.16
2018-11-12T02:48:08.621Z,64.33
2018-11-12T02:48:40.218Z,63.78
2018-11-12T02:49:11.803Z,63.71
2018-11-12T02:49:43.406Z,62.54
2018-11-12T02:50:15.006Z,62.72
2018-11-12T02:50:46.628Z,62.71
2018-11-12T02:51:18.216Z,62.56
2018-11-12T02:51:49.814Z,62.52
2018-11-12T02:52:21.419Z,62.48
2018-11-12T02:52:53.022Z,62.42
2018-11-12T02:53:24.612Z,62.47
2018-11-12T02:53:56.212Z,62.60
2018-11-12T02:54:27.800Z,62.64
2018-11-12T02:54:59.402Z,62.58
2018-11-12T02:55:31.016Z,62.55
2018-11-12T02:56:02.604Z,62.54
2018-11-12T02:56:34.192Z,62.55
2018-11-12T02:57:05.784Z,62.53
2018-11-12T02:57:37.413Z,62.50
2018-11-12T02:58:08.999Z,62.39
2018-11-12T02:58:40.598Z,62.37
2018-11-12T02:59:12.191Z,62.20
2018-11-12T02:59:43.793Z,62.37
2018-11-12T03:00:15.380Z,62.31
2018-11-12T03:00:47.010Z,62.49
2018-11-12T03:01:18.637Z,62.66
2018-11-12T03:01:50.236Z,62.61
2018-11-12T03:02:21.866Z,62.80
2018-11-12T03:02:53.467Z,62.82
2018-11-12T03:03:25.074Z,62.78
2018-11-12T03:03:56.677Z,63.05
2018-11-12T03:04:28.282Z,63.19
2018-11-12T03:04:59.861Z,63.11
2018-11-12T03:05:31.490Z,63.17
2018-11-12T03:06:03.075Z,63.19
2018-11-12T03:06:34.689Z,63.31
2018-11-12T03:07:06.282Z,63.30
2018-11-12T03:07:37.928Z,63.13
2018-11-12T03:08:09.478Z,63.35
2018-11-12T03:08:41.064Z,63.26
2018-11-12T03:09:12.657Z,63.21
2018-11-12T03:09:44.253Z,63.31
2018-11-12T03:10:15.840Z,63.11
2018-11-12T03:10:47.468Z,63.35
2018-11-12T03:11:19.056Z,63.48
2018-11-12T03:11:50.645Z,63.47
2018-11-12T03:12:22.236Z,63.30
2018-11-12T03:12:53.809Z,63.60
2018-11-12T03:13:25.411Z,63.26
2018-11-12T03:13:57.014Z,63.58
2018-11-12T03:14:28.752Z,63.31
2018-11-12T03:15:00.406Z,63.38
2018-11-12T03:15:32.021Z,63.39
2018-11-12T03:16:03.628Z,63.46
2018-11-12T03:16:35.228Z,63.40
2018-11-12T03:17:06.825Z,63.52
2018-11-12T03:17:38.416Z,63.46
2018-11-12T03:18:10.004Z,63.42
2018-11-12T03:18:41.591Z,63.43
2018-11-12T03:19:13.190Z,63.45
2018-11-12T03:19:44.798Z,63.59
2018-11-12T03:20:16.403Z,63.45
2018-11-12T03:20:51.524Z,63.37
2018-11-12T03:21:23.122Z,63.23
2018-11-12T03:21:54.726Z,63.82
2018-11-12T03:22:26.334Z,63.88
2018-11-12T03:22:57.924Z,63.90
2018-11-12T03:23:29.507Z,63.82
2018-11-12T03:24:01.078Z,63.73
2018-11-12T03:24:32.660Z,63.73
2018-11-12T03:25:04.262Z,63.89
2018-11-12T03:25:35.994Z,63.73
2018-11-12T03:26:07.659Z,64.01
2018-11-12T03:26:39.212Z,63.84
2018-11-12T03:27:10.799Z,64.01
2018-11-12T03:27:42.430Z,64.19
2018-11-12T03:28:14.029Z,64.02
2018-11-12T03:28:45.620Z,64.00
2018-11-12T03:29:17.212Z,64.03
2018-11-12T03:29:49.287Z,63.89
2018-11-12T03:30:20.906Z,63.86
2018-11-12T03:30:52.540Z,63.86
2018-11-12T03:31:24.310Z,63.95
2018-11-12T03:31:56.183Z,64.09
2018-11-12T03:32:27.836Z,63.99
2018-11-12T03:32:59.390Z,63.95
2018-11-12T03:33:30.971Z,64.02
2018-11-12T03:34:02.566Z,63.99
2018-11-12T03:34:34.142Z,64.00
2018-11-12T03:35:05.729Z,63.96
2018-11-12T03:35:37.366Z,64.09
2018-11-12T03:36:08.956Z,63.96
2018-11-12T03:36:40.544Z,64.18
2018-11-12T03:37:12.151Z,64.16
2018-11-12T03:37:43.761Z,64.16
2018-11-12T03:38:15.364Z,64.16
2018-11-12T03:38:46.953Z,64.09
2018-11-12T03:39:18.543Z,63.93
2018-11-12T03:39:50.203Z,63.92
2018-11-12T03:40:21.762Z,64.06
2018-11-12T03:40:53.389Z,63.82
2018-11-12T03:41:25.251Z,63.71
2018-11-12T03:41:56.848Z,63.96
2018-11-12T03:42:28.436Z,63.79
2018-11-12T03:43:00.063Z,64.04
2018-11-12T03:43:31.648Z,63.88
2018-11-12T03:44:03.250Z,63.69
2018-11-12T03:44:34.854Z,63.86
2018-11-12T03:45:06.469Z,63.59
2018-11-12T03:45:38.079Z,63.54
2018-11-12T03:46:09.694Z,63.65
2018-11-12T03:46:41.288Z,63.64
2018-11-12T03:47:12.876Z,63.60
2018-11-12T03:47:44.478Z,63.61
2018-11-12T03:48:16.076Z,63.52
2018-11-12T03:48:47.672Z,63.56
2018-11-12T03:49:19.265Z,63.43
2018-11-12T03:49:50.866Z,63.44
2018-11-12T03:50:22.471Z,63.39
2018-11-12T03:50:54.107Z,63.24
2018-11-12T03:51:25.704Z,63.20
2018-11-12T03:51:57.304Z,63.22
2018-11-12T03:52:28.906Z,63.08
2018-11-12T03:53:00.510Z,63.18
2018-11-12T03:53:32.096Z,63.04
2018-11-12T03:54:03.683Z,63.21
2018-11-12T03:54:35.287Z,62.96
2018-11-12T03:55:06.875Z,63.15
2018-11-12T03:55:38.525Z,63.07
2018-11-12T03:56:10.170Z,63.20
2018-11-12T03:56:41.759Z,63.14
2018-11-12T03:57:13.358Z,63.22
2018-11-12T03:57:44.956Z,63.13
2018-11-12T03:58:16.540Z,63.06
2018-11-12T03:58:48.128Z,63.10
2018-11-12T03:59:19.721Z,63.08
2018-11-12T03:59:51.313Z,62.94
2018-11-12T04:00:22.985Z,62.90
2018-11-12T04:00:54.555Z,62.80
2018-11-12T04:01:26.146Z,62.84
2018-11-12T04:01:57.718Z,62.92
2018-11-12T04:02:29.312Z,62.83
2018-11-12T04:03:00.909Z,62.91
2018-11-12T04:03:32.505Z,62.82
2018-11-12T04:04:04.111Z,62.83
2018-11-12T04:04:35.700Z,62.88
2018-11-12T04:05:07.298Z,62.79
2018-11-12T04:05:38.892Z,62.74
2018-11-12T04:06:10.518Z,62.57
2018-11-12T04:06:42.112Z,62.59
2018-11-12T04:07:13.702Z,62.59
2018-11-12T04:07:45.283Z,62.71
2018-11-12T04:08:16.886Z,62.57
2018-11-12T04:08:48.494Z,62.53
2018-11-12T04:09:20.084Z,62.63
2018-11-12T04:09:51.668Z,62.60
2018-11-12T04:10:23.274Z,62.47
2018-11-12T04:10:54.899Z,62.67
2018-11-12T04:11:26.511Z,62.70
2018-11-12T04:11:58.111Z,62.64
2018-11-12T04:12:29.723Z,62.69
2018-11-12T04:13:01.316Z,62.50
2018-11-12T04:13:32.904Z,62.61
2018-11-12T04:14:04.505Z,62.52
2018-11-12T04:14:36.091Z,62.63
2018-11-12T04:15:08.153Z,62.59
2018-11-12T04:15:39.749Z,62.57
2018-11-12T04:16:11.364Z,62.52
2018-11-12T04:16:42.960Z,62.50
2018-11-12T04:17:14.551Z,62.61
2018-11-12T04:17:46.141Z,62.55
2018-11-12T04:18:17.736Z,62.57
2018-11-12T04:18:49.323Z,62.49
2018-11-12T04:19:20.934Z,62.58
2018-11-12T04:19:52.524Z,62.47
2018-11-12T04:20:24.134Z,62.58
2018-11-12T04:20:55.762Z,62.60
2018-11-12T04:21:27.372Z,62.52
2018-11-12T04:21:58.960Z,62.62
2018-11-12T04:22:30.558Z,62.55
2018-11-12T04:23:02.166Z,62.48
2018-11-12T04:23:33.760Z,62.48
2018-11-12T04:24:05.348Z,62.46
2018-11-12T04:24:36.953Z,62.50
2018-11-12T04:25:08.557Z,62.53
2018-11-12T04:25:40.162Z,62.55
2018-11-12T04:26:11.786Z,62.51
2018-11-12T04:26:43.387Z,62.57
2018-11-12T04:27:14.976Z,62.50
2018-11-12T04:27:46.574Z,62.50
2018-11-12T04:28:18.160Z,62.58
2018-11-12T04:28:49.761Z,62.48
2018-11-12T04:29:21.347Z,62.58
2018-11-12T04:29:52.940Z,62.56
2018-11-12T04:30:24.528Z,62.57
2018-11-12T04:30:56.130Z,62.55
2018-11-12T04:31:27.711Z,62.55
2018-11-12T04:31:59.311Z,62.88
2018-11-12T04:32:30.895Z,62.61
2018-11-12T04:33:08.009Z,62.86
2018-11-12T04:33:39.614Z,62.84
2018-11-12T04:34:11.202Z,62.89
2018-11-12T04:34:42.787Z,63.00
2018-11-12T04:35:14.387Z,63.03
2018-11-12T04:35:45.994Z,63.10
2018-11-12T04:36:17.584Z,63.11
2018-11-12T04:36:49.182Z,63.19
2018-11-12T04:37:20.769Z,63.16
2018-11-12T04:37:52.382Z,63.16
2018-11-12T04:38:23.954Z,63.29
2018-11-12T04:38:55.543Z,63.32
2018-11-12T04:39:27.134Z,63.25
2018-11-12T04:39:58.710Z,63.28
2018-11-12T04:40:30.296Z,63.31
2018-11-12T04:41:01.920Z,63.49
2018-11-12T04:41:33.522Z,63.45
2018-11-12T04:42:05.103Z,63.40
2018-11-12T04:42:36.681Z,63.48
2018-11-12T04:43:08.287Z,63.49
2018-11-12T04:43:39.879Z,63.68
2018-11-12T04:44:11.464Z,63.66
2018-11-12T04:44:43.090Z,63.62
2018-11-12T04:45:14.680Z,63.57
2018-11-12T04:45:57.640Z,63.66
2018-11-12T04:46:29.244Z,63.63
2018-11-12T04:47:00.822Z,63.59
2018-11-12T04:47:32.426Z,63.73
2018-11-12T04:48:04.038Z,63.75
2018-11-12T04:48:35.638Z,63.74
2018-11-12T04:49:07.231Z,63.78
2018-11-12T04:49:38.820Z,63.70
2018-11-12T04:50:10.404Z,63.76
2018-11-12T04:50:42.001Z,63.83
2018-11-12T04:51:13.595Z,63.75
2018-11-12T04:51:45.184Z,63.82
2018-11-12T04:52:16.768Z,63.78
2018-11-12T04:52:48.370Z,63.85
2018-11-12T04:53:19.960Z,64.00
2018-11-12T04:53:51.623Z,63.85
2018-11-12T04:54:23.181Z,63.95
2018-11-12T04:54:54.791Z,63.97
2018-11-12T04:55:26.437Z,64.00
2018-11-12T04:55:58.007Z,64.11
2018-11-12T04:56:29.586Z,64.01
2018-11-12T04:57:01.195Z,64.13
2018-11-12T04:57:32.784Z,64.09
2018-11-12T04:58:04.386Z,64.15
2018-11-12T04:58:35.991Z,64.20
2018-11-12T04:59:07.598Z,64.20
2018-11-12T04:59:39.222Z,64.11
2018-11-12T05:00:10.836Z,64.29
2018-11-12T05:00:42.425Z,64.17
2018-11-12T05:01:14.717Z,64.21
2018-11-12T05:01:46.363Z,64.25
2018-11-12T05:02:17.970Z,64.22
2018-11-12T05:02:49.576Z,64.30
2018-11-12T05:03:21.178Z,64.33
2018-11-12T05:03:52.768Z,64.41
2018-11-12T05:04:24.378Z,64.49
2018-11-12T05:04:55.982Z,64.59
2018-11-12T05:05:27.576Z,64.51
2018-11-12T05:05:59.191Z,64.55
2018-11-12T05:06:30.772Z,64.50
2018-11-12T05:07:02.348Z,64.53
2018-11-12T05:07:34.040Z,64.64
2018-11-12T05:08:05.602Z,64.60
2018-11-12T05:08:37.199Z,64.64
2018-11-12T05:09:08.826Z,64.71
2018-11-12T05:09:40.416Z,64.66
2018-11-12T05:10:12.008Z,64.71
2018-11-12T05:10:43.616Z,64.77
2018-11-12T05:11:15.236Z,64.67
2018-11-12T05:11:46.847Z,64.71
2018-11-12T05:12:18.438Z,64.64
2018-11-12T05:12:50.042Z,64.67
2018-11-12T05:13:21.646Z,64.68
2018-11-12T05:13:53.237Z,64.74
2018-11-12T05:14:24.828Z,64.81
2018-11-12T05:14:56.435Z,64.91
2018-11-12T05:15:28.026Z,65.06
2018-11-12T05:15:59.649Z,64.96
2018-11-12T05:16:31.318Z,65.04
2018-11-12T05:17:02.864Z,65.00
2018-11-12T05:17:34.471Z,65.00
2018-11-12T05:18:06.055Z,65.03
2018-11-12T05:18:37.658Z,64.98
2018-11-12T05:19:09.252Z,64.96
2018-11-12T05:19:41.177Z,65.18
2018-11-12T05:20:13.209Z,65.23
2018-11-12T05:20:44.786Z,65.21
2018-11-12T05:21:16.415Z,65.09
2018-11-12T05:21:48.018Z,65.07
2018-11-12T05:22:19.613Z,65.16
2018-11-12T05:22:51.204Z,65.34
2018-11-12T05:23:22.792Z,65.13
2018-11-12T05:23:54.366Z,65.22
2018-11-12T05:24:25.952Z,65.01
2018-11-12T05:24:57.544Z,65.10
2018-11-12T05:25:29.128Z,65.07
2018-11-12T05:26:00.719Z,65.11
2018-11-12T05:26:32.334Z,65.17
2018-11-12T05:27:03.920Z,65.43
2018-11-12T05:27:35.514Z,65.27
2018-11-12T05:28:07.098Z,65.21
2018-11-12T05:28:38.698Z,65.24
2018-11-12T05:29:10.288Z,65.03
2018-11-12T05:29:41.885Z,64.99
2018-11-12T05:30:13.476Z,65.03
2018-11-12T05:30:45.079Z,64.96
2018-11-12T05:31:16.699Z,65.09
2018-11-12T05:31:48.304Z,65.05
2018-11-12T05:32:19.898Z,64.94
2018-11-12T05:32:51.489Z,64.93
2018-11-12T05:33:23.084Z,64.75
2018-11-12T05:33:54.678Z,64.76
2018-11-12T05:34:26.285Z,64.74
2018-11-12T05:34:57.871Z,64.79
2018-11-12T05:35:29.468Z,64.76
2018-11-12T05:36:01.065Z,64.72
2018-11-12T05:36:33.046Z,64.72
2018-11-12T05:37:04.969Z,64.63
2018-11-12T05:37:36.592Z,64.63
2018-11-12T05:38:08.178Z,64.71
2018-11-12T05:38:39.791Z,64.63
2018-11-12T05:39:11.387Z,64.59
2018-11-12T05:39:42.972Z,64.57
2018-11-12T05:40:14.569Z,64.57
2018-11-12T05:40:46.155Z,64.54
2018-11-12T05:41:17.784Z,64.55
2018-11-12T05:41:49.390Z,64.56
2018-11-12T05:42:21.003Z,64.53
2018-11-12T05:42:52.591Z,64.52
2018-11-12T05:43:24.166Z,64.54
2018-11-12T05:43:55.755Z,65.07
2018-11-12T05:44:27.334Z,64.71
2018-11-12T05:44:58.962Z,64.81
2018-11-12T05:45:30.566Z,64.50
2018-11-12T05:46:02.156Z,64.47
2018-11-12T05:46:33.768Z,64.61
2018-11-12T05:47:05.341Z,64.63
2018-11-12T05:47:36.929Z,64.41
2018-11-12T05:48:08.526Z,64.60
2018-11-12T05:48:40.112Z,64.64
2018-11-12T05:49:11.700Z,64.65
2018-11-12T05:49:43.289Z,64.63
2018-11-12T05:50:14.889Z,64.77
2018-11-12T05:50:46.480Z,64.71
2018-11-12T05:51:18.137Z,64.71
2018-11-12T05:51:49.731Z,64.54
2018-11-12T05:52:21.422Z,64.58
2018-11-12T05:52:53.285Z,64.51
2018-11-12T05:53:25.163Z,64.72
2018-11-12T05:53:57.043Z,64.83
2018-11-12T05:54:28.642Z,64.96
2018-11-12T05:55:00.238Z,64.89
2018-11-12T05:55:31.840Z,64.86
2018-11-12T05:56:03.428Z,64.79
2018-11-12T05:56:35.059Z,64.75
2018-11-12T05:57:06.657Z,64.75
2018-11-12T05:57:38.243Z,65.04
2018-11-12T05:58:09.831Z,64.86
2018-11-12T05:58:41.416Z,64.72
2018-11-12T05:59:12.999Z,64.93
2018-11-12T05:59:44.589Z,64.81
2018-11-12T06:00:16.176Z,65.06
2018-11-12T06:00:47.760Z,64.88
2018-11-12T06:01:19.343Z,64.87
2018-11-12T06:01:50.952Z,64.82
2018-11-12T06:02:22.540Z,64.87
2018-11-12T06:02:54.127Z,65.03
2018-11-12T06:03:25.708Z,65.02
2018-11-12T06:03:57.290Z,65.09
2018-11-12T06:04:28.876Z,65.08
2018-11-12T06:05:00.526Z,65.06
2018-11-12T06:05:32.073Z,65.05
2018-11-12T06:06:03.641Z,65.11
2018-11-12T06:06:35.231Z,65.07
2018-11-12T06:07:06.834Z,64.96
2018-11-12T06:07:38.437Z,64.85
2018-11-12T06:08:10.032Z,65.09
2018-11-12T06:08:41.616Z,65.02
2018-11-12T06:09:13.208Z,65.04
2018-11-12T06:09:44.843Z,65.01
2018-11-12T06:10:16.439Z,64.95
2018-11-12T06:10:48.024Z,64.88
2018-11-12T06:11:19.608Z,64.96
2018-11-12T06:11:51.231Z,65.07
2018-11-12T06:12:22.819Z,64.89
2018-11-12T06:12:54.406Z,64.85
2018-11-12T06:13:26.030Z,65.08
2018-11-12T06:13:57.616Z,65.15
2018-11-12T06:14:29.203Z,65.24
2018-11-12T06:15:00.800Z,65.11
2018-11-12T06:15:32.391Z,65.20
2018-11-12T06:16:03.990Z,65.17
2018-11-12T06:16:35.575Z,65.12
2018-11-12T06:17:07.206Z,65.20
2018-11-12T06:17:38.805Z,65.21
2018-11-12T06:18:10.382Z,65.15
2018-11-12T06:18:41.982Z,65.20
2018-11-12T06:19:13.778Z,65.38
2018-11-12T06:19:45.377Z,65.38
2018-11-12T06:20:16.963Z,65.21
2018-11-12T06:20:48.558Z,65.43
2018-11-12T06:21:20.144Z,65.50
2018-11-12T06:21:51.774Z,65.42
2018-11-12T06:22:23.375Z,65.48
2018-11-12T06:22:54.958Z,65.59
2018-11-12T06:23:26.535Z,65.58
2018-11-12T06:23:58.120Z,65.39
2018-11-12T06:24:29.707Z,65.39
2018-11-12T06:25:01.302Z,65.59
2018-11-12T06:25:32.898Z,65.44
2018-11-12T06:26:04.497Z,65.41
2018-11-12T06:26:36.090Z,65.30
2018-11-12T06:27:07.713Z,65.35
2018-11-12T06:27:39.322Z,65.36
2018-11-12T06:28:10.926Z,65.38
2018-11-12T06:28:42.511Z,65.33
2018-11-12T06:29:14.096Z,65.45
2018-11-12T06:29:45.694Z,65.19
2018-11-12T06:30:17.298Z,65.17
2018-11-12T06:30:48.888Z,65.25
2018-11-12T06:31:20.573Z,65.21
2018-11-12T06:31:52.147Z,65.20
2018-11-12T06:32:23.778Z,65.08
2018-11-12T06:32:55.368Z,65.08
2018-11-12T06:33:26.946Z,65.05
2018-11-12T06:33:58.551Z,65.10
2018-11-12T06:34:30.130Z,65.13
2018-11-12T06:35:01.708Z,65.08
2018-11-12T06:35:33.314Z,65.11
2018-11-12T06:36:04.899Z,65.10
2018-11-12T06:36:36.505Z,64.92
2018-11-12T06:37:08.134Z,64.99
2018-11-12T06:37:39.720Z,64.89
2018-11-12T06:38:11.308Z,64.91
2018-11-12T06:38:42.914Z,64.85
2018-11-12T06:39:14.504Z,65.03
2018-11-12T06:39:46.088Z,65.06
2018-11-12T06:40:17.662Z,64.92
2018-11-12T06:40:49.247Z,64.92
2018-11-12T06:41:20.836Z,65.16
2018-11-12T06:41:52.441Z,65.02
2018-11-12T06:42:24.071Z,64.96
2018-11-12T06:42:55.690Z,64.88
2018-11-12T06:43:27.286Z,64.83
2018-11-12T06:43:58.886Z,65.01
2018-11-12T06:44:30.485Z,64.98
2018-11-12T06:45:02.063Z,64.99
2018-11-12T06:45:33.662Z,65.04
2018-11-12T06:46:05.262Z,64.91
2018-11-12T06:46:36.849Z,65.10
2018-11-12T06:47:08.459Z,65.04